Time;durP1;ratioP1;P1;durP2;ratioP2;P2;SDS_P1;SDS_P2;PMS_P1;PMS_P2;Temp;Humidity;BMP_temperature;BMP_pressure;BME280_temperature;BME280_humidity;BME280_pressure;Samples;Min_cycle;Max_cycle;Signal;HPM_P1;HPM_P2
2024/04/17 00:02:02;;;;;;;10.37;3.63;;;;;;;;;;5505265;26;20006;-54
2024/04/17 00:04:27;;;;;;;6.60;2.17;;;;;;;;;;5503849;26;20343;-54
2024/04/17 00:06:53;;;;;;;19.60;2.95;;;;;;;;;;5503919;26;19998;-57
2024/04/17 00:09:18;;;;;;;17.08;4.60;;;;;;;;;;5491990;26;20003;-55
2024/04/17 00:11:43;;;;;;;13.40;3.13;;;;;;;;;;5491928;26;20009;-56
2024/04/17 00:14:09;;;;;;;13.07;2.33;;;;;;;;;;5490037;26;20002;-57
2024/04/17 00:16:35;;;;;;;14.13;3.07;;;;;;;;;;5489892;26;20016;-57
2024/04/17 00:19:00;;;;;;;16.35;2.92;;;;;;;;;;5486245;26;20019;-56
2024/04/17 00:21:27;;;;;;;15.00;2.70;;;;;;;;;;5493055;26;20041;-57
2024/04/17 00:23:52;;;;;;;12.33;2.63;;;;;;;;;;5486946;26;20002;-57
2024/04/17 00:26:18;;;;;;;5.97;2.42;;;;;;;;;;5492696;26;20013;-57
2024/04/17 00:28:43;;;;;;;7.97;2.30;;;;;;;;;;5488999;26;20076;-55
2024/04/17 00:31:08;;;;;;;14.90;2.43;;;;;;;;;;5488451;26;20014;-55
2024/04/17 00:33:34;;;;;;;9.98;2.28;;;;;;;;;;5491070;26;20056;-56
2024/04/17 00:36:00;;;;;;;13.77;2.63;;;;;;;;;;5489924;26;20018;-54
2024/04/17 00:38:26;;;;;;;15.75;4.00;;;;;;;;;;5490127;26;20038;-54
2024/04/17 00:40:51;;;;;;;15.85;3.08;;;;;;;;;;5491749;26;20005;-56
2024/04/17 00:43:16;;;;;;;14.57;3.20;;;;;;;;;;5488720;26;20009;-55
2024/04/17 00:45:47;;;;;;;17.57;2.97;;;;;;;;;;5489595;26;19998;-56
2024/04/17 00:48:14;;;;;;;14.88;3.58;;;;;;;;;;5493280;26;20022;-55
2024/04/17 00:50:40;;;;;;;21.02;3.20;;;;;;;;;;5495596;26;20023;-55
2024/04/17 00:53:06;;;;;;;10.65;2.97;;;;;;;;;;5491917;26;19995;-58
2024/04/17 00:55:32;;;;;;;11.32;3.22;;;;;;;;;;5490502;26;20076;-57
2024/04/17 00:57:59;;;;;;;20.25;3.70;;;;;;;;;;5497305;26;20013;-55
2024/04/17 01:00:24;;;;;;;17.05;3.65;;;;;;;;;;5485180;26;19995;-57
2024/04/17 01:02:50;;;;;;;19.88;4.80;;;;;;;;;;5495206;26;20135;-54
2024/04/17 01:05:16;;;;;;;13.43;3.63;;;;;;;;;;5492037;26;20027;-56
2024/04/17 01:07:42;;;;;;;18.57;4.63;;;;;;;;;;5487172;26;20002;-53
2024/04/17 01:10:07;;;;;;;11.45;3.90;;;;;;;;;;5488242;26;20002;-55
2024/04/17 01:12:34;;;;;;;22.87;3.57;;;;;;;;;;5491010;26;20006;-57
2024/04/17 01:15:00;;;;;;;16.48;3.88;;;;;;;;;;5491977;26;20005;-58
2024/04/17 01:17:26;;;;;;;12.18;4.57;;;;;;;;;;5496266;26;20017;-56
2024/04/17 01:19:51;;;;;;;16.20;4.03;;;;;;;;;;5492789;26;20006;-57
2024/04/17 01:22:18;;;;;;;20.63;3.73;;;;;;;;;;5487060;26;20235;-56
2024/04/17 01:24:43;;;;;;;18.73;4.57;;;;;;;;;;5487925;26;19999;-58
2024/04/17 01:27:09;;;;;;;20.52;4.47;;;;;;;;;;5479966;26;20002;-57
2024/04/17 01:29:35;;;;;;;22.38;4.22;;;;;;;;;;5495734;26;20025;-57
2024/04/17 01:32:01;;;;;;;15.45;3.90;;;;;;;;;;5492430;26;20017;-57
2024/04/17 01:34:26;;;;;;;16.63;4.10;;;;;;;;;;5490286;26;20022;-57
2024/04/17 01:36:52;;;;;;;22.33;5.45;;;;;;;;;;5489998;26;20113;-57
2024/04/17 01:39:17;;;;;;;21.10;4.53;;;;;;;;;;5485698;26;20013;-53
2024/04/17 01:41:43;;;;;;;17.70;4.20;;;;;;;;;;5493425;26;20016;-55
2024/04/17 01:44:08;;;;;;;13.15;4.53;;;;;;;;;;5492438;26;20022;-59
2024/04/17 01:46:34;;;;;;;13.97;4.13;;;;;;;;;;5491434;26;20010;-55
2024/04/17 01:48:59;;;;;;;14.63;4.73;;;;;;;;;;5495961;26;20271;-57
2024/04/17 01:51:25;;;;;;;21.65;4.72;;;;;;;;;;5487061;26;20012;-55
2024/04/17 01:53:50;;;;;;;16.70;4.40;;;;;;;;;;5495362;26;20041;-57
2024/04/17 01:56:16;;;;;;;20.92;5.20;;;;;;;;;;5490688;26;20002;-54
2024/04/17 01:58:41;;;;;;;20.67;4.23;;;;;;;;;;5496718;26;20407;-54
2024/04/17 02:01:07;;;;;;;20.48;4.68;;;;;;;;;;5497884;26;20011;-57
2024/04/17 02:03:33;;;;;;;10.30;4.10;;;;;;;;;;5493072;26;20043;-53
2024/04/17 02:05:58;;;;;;;16.10;4.27;;;;;;;;;;5489224;26;20309;-52
2024/04/17 02:08:23;;;;;;;16.50;4.43;;;;;;;;;;5492330;26;20223;-57
2024/04/17 02:10:49;;;;;;;11.97;4.30;;;;;;;;;;5493554;26;20002;-56
2024/04/17 02:13:14;;;;;;;16.48;4.57;;;;;;;;;;5490762;26;20096;-55
2024/04/17 02:15:40;;;;;;;14.73;4.43;;;;;;;;;;5495807;26;19999;-55
2024/04/17 02:18:06;;;;;;;15.32;3.78;;;;;;;;;;5502696;26;19994;-54
2024/04/17 02:20:31;;;;;;;16.20;3.80;;;;;;;;;;5495831;26;20006;-56
2024/04/17 02:22:57;;;;;;;5.70;2.38;;;;;;;;;;5490471;25;19999;-59
2024/04/17 02:25:22;;;;;;;12.10;4.07;;;;;;;;;;5495933;26;20051;-55
2024/04/17 02:27:47;;;;;;;12.03;3.23;;;;;;;;;;5498006;26;20048;-54
2024/04/17 02:30:13;;;;;;;8.20;2.33;;;;;;;;;;5500350;26;20615;-58
2024/04/17 02:32:39;;;;;;;12.60;3.07;;;;;;;;;;5498297;26;19998;-56
2024/04/17 02:35:04;;;;;;;3.27;2.00;;;;;;;;;;5499512;26;20235;-53
2024/04/17 02:37:30;;;;;;;6.03;2.53;;;;;;;;;;5499457;26;20231;-58
2024/04/17 02:39:55;;;;;;;9.30;2.40;;;;;;;;;;5501122;26;20006;-58
2024/04/17 02:42:20;;;;;;;8.57;2.17;;;;;;;;;;5502583;26;19998;-56
2024/04/17 02:44:45;;;;;;;14.47;2.80;;;;;;;;;;5501323;26;20001;-54
2024/04/17 02:47:11;;;;;;;4.30;2.03;;;;;;;;;;5503648;26;20085;-58
2024/04/17 02:49:37;;;;;;;4.32;2.20;;;;;;;;;;5502807;26;20002;-57
2024/04/17 02:52:02;;;;;;;7.63;2.17;;;;;;;;;;5503635;26;20002;-57
2024/04/17 02:54:27;;;;;;;6.93;1.80;;;;;;;;;;5499101;26;20239;-57
2024/04/17 02:56:53;;;;;;;7.40;1.60;;;;;;;;;;5505174;26;20259;-54
2024/04/17 02:59:19;;;;;;;5.18;1.40;;;;;;;;;;5503969;26;20005;-55
2024/04/17 03:01:44;;;;;;;5.20;1.77;;;;;;;;;;5503146;26;19990;-58
2024/04/17 03:04:10;;;;;;;2.92;1.70;;;;;;;;;;5499681;26;20442;-58
2024/04/17 03:06:35;;;;;;;9.43;1.60;;;;;;;;;;5502793;26;20001;-55
2024/04/17 03:09:01;;;;;;;4.13;1.33;;;;;;;;;;5503210;26;20038;-58
2024/04/17 03:11:26;;;;;;;1.47;1.27;;;;;;;;;;5504357;26;20029;-55
2024/04/17 03:13:51;;;;;;;1.77;1.30;;;;;;;;;;5504429;26;19990;-56
2024/04/17 03:16:16;;;;;;;3.97;1.77;;;;;;;;;;5502799;26;20002;-58
2024/04/17 03:18:42;;;;;;;2.57;1.30;;;;;;;;;;5502016;26;20026;-55
2024/04/17 03:21:07;;;;;;;6.55;1.92;;;;;;;;;;5499963;26;20355;-55
2024/04/17 03:23:33;;;;;;;1.83;1.13;;;;;;;;;;5499797;26;20017;-57
2024/04/17 03:25:59;;;;;;;3.87;2.07;;;;;;;;;;5504616;26;20377;-56
2024/04/17 03:28:25;;;;;;;2.78;1.50;;;;;;;;;;5503558;26;20005;-55
2024/04/17 03:30:50;;;;;;;1.98;1.40;;;;;;;;;;5500307;26;19998;-54
2024/04/17 03:33:16;;;;;;;2.05;1.42;;;;;;;;;;5499086;26;20114;-57
2024/04/17 03:35:41;;;;;;;3.58;1.83;;;;;;;;;;5499248;26;19995;-54
2024/04/17 03:38:09;;;;;;;7.63;2.57;;;;;;;;;;5501054;26;20005;-55
2024/04/17 03:40:34;;;;;;;8.65;2.40;;;;;;;;;;5492490;26;20260;-57
2024/04/17 03:42:59;;;;;;;11.33;2.90;;;;;;;;;;5496507;26;20010;-56
2024/04/17 03:45:24;;;;;;;5.60;2.10;;;;;;;;;;5502482;26;19998;-56
2024/04/17 03:47:50;;;;;;;6.88;3.35;;;;;;;;;;5504330;26;20078;-57
2024/04/17 03:50:16;;;;;;;6.17;2.80;;;;;;;;;;5499434;26;20033;-54
2024/04/17 03:52:41;;;;;;;13.03;3.70;;;;;;;;;;5497577;26;20231;-60
2024/04/17 03:55:06;;;;;;;17.47;3.50;;;;;;;;;;5491033;26;20001;-56
2024/04/17 03:57:32;;;;;;;8.45;3.33;;;;;;;;;;5492148;26;20006;-56
2024/04/17 03:59:58;;;;;;;8.27;2.73;;;;;;;;;;5502010;26;20025;-53
2024/04/17 04:02:23;;;;;;;6.23;3.07;;;;;;;;;;5496579;26;20272;-55
2024/04/17 04:04:49;;;;;;;7.80;2.63;;;;;;;;;;5488636;26;20281;-58
2024/04/17 04:07:15;;;;;;;7.13;2.83;;;;;;;;;;5493030;26;20004;-57
2024/04/17 04:09:40;;;;;;;7.27;2.97;;;;;;;;;;5483677;26;19999;-56
2024/04/17 04:12:06;;;;;;;4.70;2.60;;;;;;;;;;5489625;26;20255;-58
2024/04/17 04:14:32;;;;;;;9.10;3.17;;;;;;;;;;5487455;26;20275;-54
2024/04/17 04:16:57;;;;;;;3.27;1.43;;;;;;;;;;5484034;26;20039;-58
2024/04/17 04:19:22;;;;;;;5.13;1.67;;;;;;;;;;5504486;26;20005;-58
2024/04/17 04:21:48;;;;;;;9.45;2.05;;;;;;;;;;5505313;26;19998;-57
2024/04/17 04:24:14;;;;;;;9.83;1.50;;;;;;;;;;5505214;26;20008;-58
2024/04/17 04:26:39;;;;;;;7.78;1.60;;;;;;;;;;5489350;26;20028;-57
2024/04/17 04:29:05;;;;;;;5.80;1.40;;;;;;;;;;5492372;26;19994;-57
2024/04/17 04:31:30;;;;;;;8.27;1.60;;;;;;;;;;5489100;26;20002;-60
2024/04/17 04:33:56;;;;;;;6.63;1.60;;;;;;;;;;5488582;26;20306;-56
2024/04/17 04:36:21;;;;;;;5.90;1.30;;;;;;;;;;5490663;26;19994;-58
2024/04/17 04:38:47;;;;;;;5.68;1.00;;;;;;;;;;5497026;26;19994;-57
2024/04/17 04:41:13;;;;;;;4.75;1.67;;;;;;;;;;5501991;26;20001;-58
2024/04/17 04:43:38;;;;;;;5.28;1.40;;;;;;;;;;5500823;26;19998;-58
2024/04/17 04:46:03;;;;;;;4.80;1.70;;;;;;;;;;5504566;26;20013;-59
2024/04/17 04:48:29;;;;;;;3.67;1.60;;;;;;;;;;5504468;26;19998;-59
2024/04/17 04:50:54;;;;;;;5.37;1.60;;;;;;;;;;5502924;26;20005;-59
2024/04/17 04:53:20;;;;;;;6.65;2.13;;;;;;;;;;5502205;26;19990;-57
2024/04/17 04:56:03;;;;;;;7.20;1.60;;;;;;;;;;5494235;26;20010;-58
2024/04/17 04:58:29;;;;;;;6.10;1.70;;;;;;;;;;5500488;26;20016;-58
2024/04/17 05:00:54;;;;;;;6.43;1.60;;;;;;;;;;5501629;26;20014;-59
2024/04/17 05:03:20;;;;;;;8.68;2.40;;;;;;;;;;5503140;26;20066;-58
2024/04/17 05:05:45;;;;;;;10.70;2.55;;;;;;;;;;5490682;26;20103;-57
2024/04/17 05:08:11;;;;;;;6.80;2.63;;;;;;;;;;5493787;26;20052;-58
2024/04/17 05:10:36;;;;;;;6.60;1.87;;;;;;;;;;5490503;26;20076;-58
2024/04/17 05:13:02;;;;;;;12.60;3.77;;;;;;;;;;5493753;26;20216;-58
2024/04/17 05:15:27;;;;;;;6.93;2.97;;;;;;;;;;5489861;26;20022;-59
2024/04/17 05:17:53;;;;;;;9.00;3.10;;;;;;;;;;5487950;26;20002;-60
2024/04/17 05:20:19;;;;;;;;;;;;;;;;;;5493463;26;20021;-58
2024/04/17 05:22:44;;;;;;;9.23;3.45;;;;;;;;;;5487064;26;19923;-58
2024/04/17 05:25:11;;;;;;;7.25;2.50;;;;;;;;;;5480052;26;20012;-59
2024/04/17 05:27:36;;;;;;;10.50;3.22;;;;;;;;;;5486201;26;20009;-58
2024/04/17 05:30:03;;;;;;;11.70;3.53;;;;;;;;;;5485965;26;20002;-60
2024/04/17 05:32:29;;;;;;;12.57;3.28;;;;;;;;;;5488266;26;20006;-57
2024/04/17 05:34:54;;;;;;;9.80;3.37;;;;;;;;;;5501612;26;19994;-58
2024/04/17 05:37:20;;;;;;;6.43;3.03;;;;;;;;;;5503755;26;20060;-58
2024/04/17 05:39:46;;;;;;;8.73;3.07;;;;;;;;;;5496360;26;20074;-59
2024/04/17 05:42:11;;;;;;;11.90;4.63;;;;;;;;;;5483241;26;20420;-58
2024/04/17 05:44:36;;;;;;;13.13;3.10;;;;;;;;;;5497676;26;19990;-57
2024/04/17 05:47:03;;;;;;;14.40;3.10;;;;;;;;;;5490479;26;20021;-59
2024/04/17 05:49:29;;;;;;;12.00;4.07;;;;;;;;;;5489042;26;20079;-58
2024/04/17 05:51:54;;;;;;;7.03;2.50;;;;;;;;;;5492082;26;20022;-59
2024/04/17 05:54:20;;;;;;;10.90;2.83;;;;;;;;;;5503947;26;19998;-59
2024/04/17 05:56:45;;;;;;;12.85;3.90;;;;;;;;;;5489302;26;20017;-58
2024/04/17 05:59:11;;;;;;;11.80;3.38;;;;;;;;;;5479975;26;19998;-59
2024/04/17 06:01:36;;;;;;;12.30;3.73;;;;;;;;;;5496873;26;20006;-57
2024/04/17 06:04:02;;;;;;;8.37;2.80;;;;;;;;;;5484654;26;20287;-60
2024/04/17 06:06:27;;;;;;;14.40;3.92;;;;;;;;;;5488586;26;20055;-58
2024/04/17 06:08:53;;;;;;;13.23;3.05;;;;;;;;;;5491902;26;20047;-59
2024/04/17 06:11:18;;;;;;;11.77;3.30;;;;;;;;;;5485729;26;20010;-58
2024/04/17 06:13:44;;;;;;;13.63;3.17;;;;;;;;;;5491074;26;20006;-58
2024/04/17 06:16:09;;;;;;;13.80;3.65;;;;;;;;;;5488210;26;19998;-57
2024/04/17 06:18:35;;;;;;;6.65;2.97;;;;;;;;;;5495239;26;20050;-54
2024/04/17 06:21:00;;;;;;;15.88;4.50;;;;;;;;;;5497416;26;20005;-58
2024/04/17 06:23:26;;;;;;;15.30;3.53;;;;;;;;;;5493450;26;20075;-59
2024/04/17 06:25:51;;;;;;;20.00;3.80;;;;;;;;;;5487887;26;20313;-58
2024/04/17 06:28:17;;;;;;;21.87;3.70;;;;;;;;;;5489384;26;20235;-59
2024/04/17 06:30:42;;;;;;;13.23;3.57;;;;;;;;;;5484985;26;20347;-57
2024/04/17 06:33:09;;;;;;;19.05;4.50;;;;;;;;;;5491735;26;20051;-58
2024/04/17 06:35:35;;;;;;;11.55;3.95;;;;;;;;;;5493226;26;20009;-56
2024/04/17 06:38:00;;;;;;;14.65;3.50;;;;;;;;;;5488153;26;20048;-56
2024/04/17 06:40:26;;;;;;;10.00;3.33;;;;;;;;;;5489643;26;19998;-58
2024/04/17 06:42:52;;;;;;;15.93;3.67;;;;;;;;;;5497907;26;20044;-57
2024/04/17 06:45:17;;;;;;;14.10;3.20;;;;;;;;;;5497144;26;20044;-58
2024/04/17 06:47:46;;;;;;;9.60;2.67;;;;;;;;;;5497012;26;20407;-58
2024/04/17 06:50:11;;;;;;;14.75;2.88;;;;;;;;;;5499292;26;20026;-59
2024/04/17 06:52:36;;;;;;;15.50;2.80;;;;;;;;;;5497120;26;20013;-58
2024/04/17 06:55:02;;;;;;;16.58;3.20;;;;;;;;;;5497009;26;20041;-54
2024/04/17 06:57:27;;;;;;;12.88;2.97;;;;;;;;;;5495784;26;20014;-55
2024/04/17 06:59:53;;;;;;;27.02;3.78;;;;;;;;;;5483454;26;20021;-60
2024/04/17 07:02:18;;;;;;;19.85;3.92;;;;;;;;;;5488172;26;20006;-58
2024/04/17 07:04:44;;;;;;;12.23;2.63;;;;;;;;;;5486851;26;20018;-54
2024/04/17 07:07:09;;;;;;;20.58;3.03;;;;;;;;;;5492453;26;20009;-57
2024/04/17 07:09:35;;;;;;;8.70;2.20;;;;;;;;;;5485823;26;20060;-58
2024/04/17 07:12:00;;;;;;;13.57;2.77;;;;;;;;;;5488873;26;20005;-60
2024/04/17 07:14:26;;;;;;;11.63;2.53;;;;;;;;;;5489462;26;20314;-58
2024/04/17 07:16:51;;;;;;;14.95;3.20;;;;;;;;;;5491674;26;20010;-57
2024/04/17 07:19:19;;;;;;;15.93;2.50;;;;;;;;;;5491521;26;20006;-58
2024/04/17 07:21:45;;;;;;;12.73;2.67;;;;;;;;;;5488226;26;20236;-58
2024/04/17 07:24:10;;;;;;;10.30;1.98;;;;;;;;;;5480050;26;20044;-59
2024/04/17 07:26:36;;;;;;;9.30;2.80;;;;;;;;;;5484502;26;20002;-55
2024/04/17 07:29:01;;;;;;;13.27;2.60;;;;;;;;;;5490454;26;20280;-57
2024/04/17 07:31:27;;;;;;;6.40;1.40;;;;;;;;;;5490893;26;20009;-57
2024/04/17 07:33:53;;;;;;;10.02;2.30;;;;;;;;;;5494486;26;20009;-57
2024/04/17 07:36:18;;;;;;;16.52;2.70;;;;;;;;;;5486773;26;20051;-56
2024/04/17 07:38:46;;;;;;;10.73;2.47;;;;;;;;;;5495509;26;20060;-58
2024/04/17 07:41:12;;;;;;;9.07;1.63;;;;;;;;;;5490290;26;19998;-58
2024/04/17 07:43:37;;;;;;;9.40;2.73;;;;;;;;;;5491125;26;20302;-56
2024/04/17 07:46:02;;;;;;;10.60;3.17;;;;;;;;;;5490859;26;20011;-57
2024/04/17 07:48:29;;;;;;;14.03;2.20;;;;;;;;;;5495874;26;20010;-57
2024/04/17 07:50:54;;;;;;;10.65;1.90;;;;;;;;;;5494722;26;20963;-58
2024/04/17 07:53:20;;;;;;;11.10;2.78;;;;;;;;;;5485703;26;19999;-59
2024/04/17 07:55:45;;;;;;;11.98;2.25;;;;;;;;;;5490664;26;20006;-59
2024/04/17 07:58:11;;;;;;;9.90;1.67;;;;;;;;;;5489319;26;20006;-58
2024/04/17 08:00:38;;;;;;;10.68;2.63;;;;;;;;;;5492343;26;19994;-58
2024/04/17 08:03:04;;;;;;;10.90;2.47;;;;;;;;;;5495374;26;20014;-57
2024/04/17 08:05:29;;;;;;;11.10;2.03;;;;;;;;;;5494171;26;20239;-57
2024/04/17 08:07:54;;;;;;;6.30;1.90;;;;;;;;;;5496066;26;20057;-60
2024/04/17 08:10:20;;;;;;;7.77;1.70;;;;;;;;;;5491583;26;20279;-56
2024/04/17 08:12:47;;;;;;;9.50;2.37;;;;;;;;;;5493082;26;20010;-58
2024/04/17 08:15:12;;;;;;;20.00;2.27;;;;;;;;;;5489795;26;19999;-57
2024/04/17 08:17:38;;;;;;;10.45;1.90;;;;;;;;;;5490123;26;20231;-57
2024/04/17 08:20:04;;;;;;;5.67;1.87;;;;;;;;;;5492355;26;20050;-58
2024/04/17 08:22:29;;;;;;;7.80;1.73;;;;;;;;;;5493516;26;20048;-57
2024/04/17 08:24:54;;;;;;;8.07;1.73;;;;;;;;;;5499535;26;20005;-59
2024/04/17 08:27:20;;;;;;;9.80;2.50;;;;;;;;;;5497718;26;20018;-58
2024/04/17 08:29:45;;;;;;;8.73;1.70;;;;;;;;;;5493725;26;20013;-58
2024/04/17 08:32:10;;;;;;;18.13;3.03;;;;;;;;;;5502393;26;20063;-57
2024/04/17 08:34:36;;;;;;;14.43;2.03;;;;;;;;;;5501613;26;20007;-59
2024/04/17 08:37:01;;;;;;;11.23;2.08;;;;;;;;;;5491648;26;20075;-57
2024/04/17 08:39:27;;;;;;;7.87;1.80;;;;;;;;;;5498570;26;19994;-58
2024/04/17 08:41:53;;;;;;;;;;;;;;;;;;5494041;26;20017;-61
2024/04/17 08:44:22;;;;;;;4.10;1.25;;;;;;;;;;5498123;26;19923;-57
2024/04/17 08:46:47;;;;;;;3.23;0.67;;;;;;;;;;5487676;26;20373;-58
2024/04/17 08:49:13;;;;;;;5.00;0.77;;;;;;;;;;5490191;26;20255;-56
2024/04/17 08:51:39;;;;;;;13.38;1.17;;;;;;;;;;5496617;26;20147;-59
2024/04/17 08:54:05;;;;;;;4.35;1.00;;;;;;;;;;5490836;26;19990;-60
2024/04/17 08:56:31;;;;;;;2.40;1.13;;;;;;;;;;5492396;26;19999;-60
2024/04/17 08:58:57;;;;;;;8.18;0.80;;;;;;;;;;5492117;26;19998;-60
2024/04/17 09:01:26;;;;;;;4.05;1.35;;;;;;;;;;5486775;26;19994;-59
2024/04/17 09:03:52;;;;;;;4.20;0.60;;;;;;;;;;5491263;26;20002;-57
2024/04/17 09:06:18;;;;;;;3.33;0.97;;;;;;;;;;5493576;26;20260;-55
2024/04/17 09:08:43;;;;;;;4.38;1.58;;;;;;;;;;5492103;26;19998;-58
2024/04/17 09:11:08;;;;;;;2.20;0.80;;;;;;;;;;5495693;26;20017;-59
2024/04/17 09:13:34;;;;;;;6.43;1.07;;;;;;;;;;5490086;26;19999;-60
2024/04/17 09:15:59;;;;;;;4.13;1.10;;;;;;;;;;5490724;26;19994;-60
2024/04/17 09:18:28;;;;;;;4.07;1.17;;;;;;;;;;5495969;26;19998;-60
2024/04/17 09:20:57;;;;;;;3.30;0.90;;;;;;;;;;5499779;26;20047;-61
2024/04/17 09:23:23;;;;;;;8.10;2.30;;;;;;;;;;5496967;26;20235;-56
2024/04/17 09:25:48;;;;;;;3.43;1.87;;;;;;;;;;5497662;26;20211;-58
2024/04/17 09:28:13;;;;;;;11.67;2.03;;;;;;;;;;5498007;26;20227;-61
2024/04/17 09:30:42;;;;;;;6.53;2.13;;;;;;;;;;5502613;26;20328;-60
2024/04/17 09:33:08;;;;;;;7.20;2.33;;;;;;;;;;5502320;26;20090;-57
2024/04/17 09:35:35;;;;;;;8.60;2.20;;;;;;;;;;5490631;26;20225;-58
2024/04/17 09:38:02;;;;;;;6.97;1.80;;;;;;;;;;5497999;26;20030;-58
2024/04/17 09:40:27;;;;;;;;;;;;;;;;;;5496680;26;20227;-58
2024/04/17 09:42:53;;;;;;;3.83;1.17;;;;;;;;;;5495611;26;19953;-59
2024/04/17 09:45:22;;;;;;;3.80;1.20;;;;;;;;;;5490851;26;19999;-58
2024/04/17 09:47:49;;;;;;;4.40;1.53;;;;;;;;;;5492438;26;20009;-58
2024/04/17 09:50:17;;;;;;;5.67;1.20;;;;;;;;;;5498614;26;20275;-58
2024/04/17 09:52:43;;;;;;;3.87;1.10;;;;;;;;;;5489357;26;20292;-57
2024/04/17 09:55:09;;;;;;;5.15;1.83;;;;;;;;;;5487795;26;20231;-58
2024/04/17 09:57:34;;;;;;;4.30;1.20;;;;;;;;;;5495777;26;20020;-57
2024/04/17 10:00:00;;;;;;;3.72;1.13;;;;;;;;;;5491135;26;20042;-57
2024/04/17 10:02:26;;;;;;;4.55;0.95;;;;;;;;;;5495308;26;20007;-59
2024/04/17 10:04:53;;;;;;;5.13;1.77;;;;;;;;;;5500604;26;20030;-59
2024/04/17 10:07:19;;;;;;;1.98;0.75;;;;;;;;;;5495494;26;19994;-58
2024/04/17 10:09:44;;;;;;;;;;;;;;;;;;5493559;26;20014;-59
2024/04/17 10:12:13;;;;;;;6.03;0.97;;;;;;;;;;5488126;26;19920;-60
2024/04/17 10:14:39;;;;;;;7.07;0.90;;;;;;;;;;5489112;26;20006;-56
2024/04/17 10:17:09;;;;;;;1.93;0.50;;;;;;;;;;5488555;26;20002;-58
2024/04/17 10:19:34;;;;;;;3.13;0.60;;;;;;;;;;5489011;26;20003;-60
2024/04/17 10:22:04;;;;;;;2.67;0.60;;;;;;;;;;5501254;26;20017;-56
2024/04/17 10:24:30;;;;;;;4.23;0.87;;;;;;;;;;5501494;26;20002;-59
2024/04/17 10:26:58;;;;;;;3.17;1.00;;;;;;;;;;5498037;26;19998;-59
2024/04/17 10:29:24;;;;;;;1.37;0.50;;;;;;;;;;5496427;26;20006;-57
2024/04/17 10:31:50;;;;;;;;;;;;;;;;;;5492263;26;20010;-61
2024/04/17 10:34:15;;;;;;;5.20;0.98;;;;;;;;;;5495545;26;20136;-59
2024/04/17 10:36:40;;;;;;;1.90;0.70;;;;;;;;;;5493298;26;20009;-62
2024/04/17 10:39:06;;;;;;;3.33;1.13;;;;;;;;;;5498255;26;20235;-62
2024/04/17 10:41:31;;;;;;;4.50;1.07;;;;;;;;;;5497900;26;20056;-59
2024/04/17 10:43:57;;;;;;;5.95;1.65;;;;;;;;;;5495410;26;20108;-60
2024/04/17 10:46:22;;;;;;;7.05;1.20;;;;;;;;;;5496497;26;20022;-60
2024/04/17 10:48:51;;;;;;;4.10;0.83;;;;;;;;;;5489676;26;20005;-59
2024/04/17 10:51:17;;;;;;;1.83;0.83;;;;;;;;;;5489184;26;20060;-59
2024/04/17 10:53:45;;;;;;;1.80;0.75;;;;;;;;;;5494966;26;20067;-58
2024/04/17 10:56:11;;;;;;;2.13;0.87;;;;;;;;;;5488112;26;20010;-57
2024/04/17 10:58:37;;;;;;;1.92;0.90;;;;;;;;;;5494089;26;20022;-59
2024/04/17 11:01:03;;;;;;;2.57;0.60;;;;;;;;;;5493428;26;20002;-58
2024/04/17 11:03:28;;;;;;;3.13;0.68;;;;;;;;;;5496782;26;20031;-60
2024/04/17 11:05:55;;;;;;;2.00;0.57;;;;;;;;;;5496739;26;20009;-60
2024/04/17 11:08:21;;;;;;;1.03;0.50;;;;;;;;;;5490676;26;20013;-59
2024/04/17 11:10:47;;;;;;;2.83;0.90;;;;;;;;;;5492492;26;19994;-57
2024/04/17 11:13:16;;;;;;;7.43;3.90;;;;;;;;;;5496446;26;20273;-60
2024/04/17 11:15:42;;;;;;;1.00;0.60;;;;;;;;;;5495386;26;20010;-58
2024/04/17 11:18:08;;;;;;;3.72;1.02;;;;;;;;;;5494774;26;20055;-59
2024/04/17 11:20:34;;;;;;;3.08;1.58;;;;;;;;;;5501179;26;20005;-57
2024/04/17 11:23:07;;;;;;;4.70;2.13;;;;;;;;;;5497916;26;19998;-57
2024/04/17 11:25:37;;;;;;;4.20;1.73;;;;;;;;;;5497424;26;20232;-58
2024/04/17 11:28:02;;;;;;;6.40;2.13;;;;;;;;;;5489404;26;20227;-58
2024/04/17 11:30:28;;;;;;;3.17;0.80;;;;;;;;;;5494453;26;20292;-59
2024/04/17 11:32:54;;;;;;;1.05;0.60;;;;;;;;;;5493663;26;19990;-58
2024/04/17 11:35:19;;;;;;;1.15;0.65;;;;;;;;;;5499398;26;19999;-58
2024/04/17 11:37:45;;;;;;;2.67;0.70;;;;;;;;;;5493313;26;20013;-60
2024/04/17 11:40:10;;;;;;;0.82;0.63;;;;;;;;;;5490259;26;20006;-58
2024/04/17 11:42:39;;;;;;;0.73;0.60;;;;;;;;;;5491772;26;20041;-57
2024/04/17 11:45:06;;;;;;;1.73;0.90;;;;;;;;;;5498999;26;19998;-58
2024/04/17 11:47:31;;;;;;;;;;;;;;;;;;5491672;26;20268;-57
2024/04/17 11:49:57;;;;;;;0.60;0.43;;;;;;;;;;5497019;26;19925;-58
2024/04/17 11:52:22;;;;;;;1.25;0.77;;;;;;;;;;5490784;26;20047;-58
2024/04/17 11:54:48;;;;;;;6.63;0.88;;;;;;;;;;5493828;26;20023;-59
2024/04/17 11:57:13;;;;;;;1.37;0.80;;;;;;;;;;5495797;26;19998;-56
2024/04/17 11:59:38;;;;;;;3.17;0.90;;;;;;;;;;5497668;26;20012;-57
2024/04/17 12:02:04;;;;;;;1.25;0.63;;;;;;;;;;5498256;26;20029;-59
2024/04/17 12:04:30;;;;;;;1.73;0.70;;;;;;;;;;5504438;26;20010;-57
2024/04/17 12:06:56;;;;;;;0.93;0.57;;;;;;;;;;5493580;26;19998;-56
2024/04/17 12:09:21;;;;;;;2.22;0.60;;;;;;;;;;5486818;26;20014;-57
2024/04/17 12:11:48;;;;;;;1.60;0.80;;;;;;;;;;5497558;26;19994;-57
2024/04/17 12:14:14;;;;;;;1.75;1.20;;;;;;;;;;5496513;26;20003;-56
2024/04/17 12:16:40;;;;;;;1.67;1.00;;;;;;;;;;5493505;26;20001;-58
2024/04/17 12:19:06;;;;;;;2.65;0.90;;;;;;;;;;5497139;26;20259;-56
2024/04/17 12:21:31;;;;;;;5.17;1.37;;;;;;;;;;5502318;26;19998;-59
2024/04/17 12:23:56;;;;;;;1.38;0.80;;;;;;;;;;5501567;26;19990;-60
2024/04/17 12:29:06;;;;;;;2.00;0.67;;;;;;;;;;5502398;26;19994;-58
2024/04/17 12:31:32;;;;;;;0.88;0.63;;;;;;;;;;5495980;26;20279;-58
2024/04/17 12:33:57;;;;;;;4.43;1.23;;;;;;;;;;5491393;26;20019;-58
2024/04/17 12:36:22;;;;;;;4.32;0.95;;;;;;;;;;5492450;26;20002;-58
2024/04/17 12:38:48;;;;;;;2.83;1.40;;;;;;;;;;5497661;26;19994;-58
2024/04/17 12:41:14;;;;;;;3.17;1.27;;;;;;;;;;5485105;26;20019;-56
2024/04/17 12:43:40;;;;;;;3.33;1.37;;;;;;;;;;5487866;26;20010;-58
2024/04/17 12:46:06;;;;;;;3.13;0.95;;;;;;;;;;5493490;26;19994;-58
2024/04/17 12:48:32;;;;;;;3.37;1.50;;;;;;;;;;5498224;26;20040;-59
2024/04/17 12:50:57;;;;;;;3.85;1.85;;;;;;;;;;5496931;26;20128;-60
2024/04/17 12:53:23;;;;;;;3.25;1.42;;;;;;;;;;5486395;26;20005;-59
2024/04/17 12:55:54;;;;;;;1.93;1.13;;;;;;;;;;5490341;26;20009;-58
2024/04/17 12:58:22;;;;;;;3.33;1.40;;;;;;;;;;5496536;26;20002;-59
2024/04/17 13:00:47;;;;;;;7.37;3.90;;;;;;;;;;5496905;26;20007;-57
2024/04/17 13:03:13;;;;;;;5.18;2.40;;;;;;;;;;5488898;26;20005;-61
2024/04/17 13:05:38;;;;;;;3.00;1.17;;;;;;;;;;5496281;26;20401;-59
2024/04/17 13:08:03;;;;;;;1.53;0.90;;;;;;;;;;5495148;26;19998;-59
2024/04/17 13:10:29;;;;;;;3.47;0.85;;;;;;;;;;5492839;26;20046;-59
2024/04/17 13:12:55;;;;;;;2.08;0.80;;;;;;;;;;5492982;26;19994;-59
2024/04/17 13:15:21;;;;;;;5.87;1.40;;;;;;;;;;5497342;26;19994;-57
2024/04/17 13:17:47;;;;;;;2.70;1.10;;;;;;;;;;5497030;26;20006;-59
2024/04/17 13:20:13;;;;;;;2.38;1.23;;;;;;;;;;5497954;26;19998;-58
2024/04/17 13:22:39;;;;;;;2.40;1.10;;;;;;;;;;5491051;26;20023;-55
2024/04/17 13:25:04;;;;;;;1.23;0.88;;;;;;;;;;5492788;26;19994;-59
2024/04/17 13:27:30;;;;;;;3.13;1.08;;;;;;;;;;5487463;26;20003;-57
2024/04/17 13:29:56;;;;;;;1.92;1.20;;;;;;;;;;5495216;26;20012;-57
2024/04/17 13:32:21;;;;;;;1.92;1.10;;;;;;;;;;5498729;26;20464;-60
2024/04/17 13:34:53;;;;;;;2.25;1.10;;;;;;;;;;5498264;26;20048;-60
2024/04/17 13:37:18;;;;;;;1.80;0.80;;;;;;;;;;5502442;26;20713;-59
2024/04/17 13:39:43;;;;;;;0.97;0.80;;;;;;;;;;5494334;26;20013;-59
2024/04/17 13:42:09;;;;;;;3.13;0.80;;;;;;;;;;5500496;26;20003;-59
2024/04/17 13:44:34;;;;;;;1.75;0.70;;;;;;;;;;5500912;26;20006;-60
2024/04/17 13:47:00;;;;;;;3.17;0.87;;;;;;;;;;5500925;26;20016;-59
2024/04/17 13:49:25;;;;;;;1.27;0.60;;;;;;;;;;5497195;26;20018;-57
2024/04/17 13:51:50;;;;;;;0.90;0.70;;;;;;;;;;5501566;26;20010;-58
2024/04/17 13:54:17;;;;;;;1.10;0.70;;;;;;;;;;5501060;26;20018;-59
2024/04/17 13:56:43;;;;;;;1.47;0.70;;;;;;;;;;5498909;26;20105;-58
2024/04/17 13:59:09;;;;;;;1.30;0.83;;;;;;;;;;5500837;26;20005;-58
2024/04/17 14:01:35;;;;;;;2.03;0.70;;;;;;;;;;5490977;26;20070;-58
2024/04/17 14:04:00;;;;;;;1.63;0.70;;;;;;;;;;5490006;26;20049;-58
2024/04/17 14:06:26;;;;;;;0.90;0.47;;;;;;;;;;5494541;26;20056;-60
2024/04/17 14:08:51;;;;;;;0.93;0.80;;;;;;;;;;5483283;26;20003;-58
2024/04/17 14:11:17;;;;;;;9.77;4.07;;;;;;;;;;5489271;26;20024;-59
2024/04/17 14:13:42;;;;;;;3.60;1.93;;;;;;;;;;5492143;26;20002;-59
2024/04/17 14:16:07;;;;;;;2.90;1.57;;;;;;;;;;5488068;26;20544;-57
2024/04/17 14:18:33;;;;;;;3.83;1.60;;;;;;;;;;5491399;26;20175;-59
2024/04/17 14:20:58;;;;;;;3.37;1.40;;;;;;;;;;5488185;26;20236;-59
2024/04/17 14:23:24;;;;;;;18.25;4.95;;;;;;;;;;5494275;26;20044;-59
2024/04/17 14:25:59;;;;;;;16.95;5.72;;;;;;;;;;5498341;26;20079;-59
2024/04/17 14:28:26;;;;;;;4.50;1.20;;;;;;;;;;5494335;26;19998;-58
2024/04/17 14:31:01;;;;;;;1.27;0.90;;;;;;;;;;5496367;26;20016;-58
2024/04/17 14:33:33;;;;;;;1.40;0.90;;;;;;;;;;5491546;26;19998;-58
2024/04/17 14:36:05;;;;;;;1.80;1.10;;;;;;;;;;5490087;26;20012;-57